createdAt,value
2018-03-15T00:01:44.096Z,1.50
2018-03-15T00:04:11.782Z,1.60
2018-03-15T00:06:39.504Z,1.50
2018-03-15T00:09:07.631Z,1.50
2018-03-15T00:11:36.132Z,1.50
2018-03-15T00:14:04.552Z,1.40
2018-03-15T00:16:32.080Z,1.40
2018-03-15T00:19:00.360Z,1.40
2018-03-15T00:21:27.882Z,1.30
2018-03-15T00:23:55.524Z,1.30
2018-03-15T00:26:23.090Z,1.20
2018-03-15T00:28:50.599Z,1.20
2018-03-15T00:31:18.890Z,1.20
2018-03-15T00:33:46.407Z,1.10
2018-03-15T00:36:13.937Z,1.10
2018-03-15T00:38:41.731Z,1.10
2018-03-15T00:41:09.235Z,1.10
2018-03-15T00:43:36.758Z,1.10
2018-03-15T00:46:04.267Z,1.00
2018-03-15T00:48:31.787Z,1.00
2018-03-15T00:50:59.293Z,1.00
2018-03-15T00:53:26.838Z,0.90
2018-03-15T00:55:54.346Z,0.90
2018-03-15T00:58:21.911Z,0.90
2018-03-15T01:00:49.562Z,0.90
2018-03-15T01:03:17.089Z,0.90
2018-03-15T01:05:44.706Z,0.90
2018-03-15T01:08:13.018Z,0.80
2018-03-15T01:10:41.283Z,0.80
2018-03-15T01:13:09.576Z,0.80
2018-03-15T01:15:37.175Z,0.80
2018-03-15T01:18:04.741Z,0.80
2018-03-15T01:20:32.315Z,0.80
2018-03-15T01:22:59.904Z,0.80
2018-03-15T01:25:28.174Z,0.70
2018-03-15T01:27:56.462Z,0.70
2018-03-15T01:30:24.778Z,0.70
2018-03-15T01:32:52.313Z,0.70
2018-03-15T01:35:20.079Z,0.70
2018-03-15T01:37:47.602Z,0.70
2018-03-15T01:40:15.116Z,0.70
2018-03-15T01:42:42.630Z,0.70
2018-03-15T01:45:10.160Z,0.70
2018-03-15T01:47:37.818Z,0.70
2018-03-15T01:50:05.344Z,0.70
2018-03-15T01:52:34.835Z,0.70
2018-03-15T01:55:03.160Z,0.70
2018-03-15T01:57:30.711Z,0.60
2018-03-15T02:02:52.107Z,0.70
2018-03-15T02:05:20.458Z,0.70
2018-03-15T02:07:47.971Z,0.60
2018-03-15T02:10:15.503Z,0.70
2018-03-15T02:12:43.867Z,0.60
2018-03-15T02:15:12.007Z,0.60
2018-03-15T02:17:39.507Z,0.60
2018-03-15T02:20:08.811Z,0.50
2018-03-15T02:22:37.118Z,0.60
2018-03-15T02:25:04.951Z,0.50
2018-03-15T02:27:32.628Z,0.60
2018-03-15T02:30:00.146Z,0.50
2018-03-15T02:32:27.647Z,0.50
2018-03-15T02:34:56.057Z,0.50
2018-03-15T02:37:23.567Z,0.40
2018-03-15T02:39:51.126Z,0.50
2018-03-15T02:42:18.659Z,0.50
2018-03-15T02:44:46.184Z,0.50
2018-03-15T02:47:13.772Z,0.50
2018-03-15T02:49:41.558Z,0.50
2018-03-15T02:52:09.066Z,0.50
2018-03-15T02:54:37.352Z,0.40
2018-03-15T02:57:04.867Z,0.40
2018-03-15T02:59:32.414Z,0.40
2018-03-15T03:01:59.926Z,0.40
2018-03-15T03:04:27.489Z,0.30
2018-03-15T03:06:55.935Z,0.30
2018-03-15T03:09:23.476Z,0.20
2018-03-15T03:11:50.977Z,0.30
2018-03-15T03:14:19.249Z,0.30
2018-03-15T03:16:47.603Z,0.40
2018-03-15T03:19:15.295Z,0.30
2018-03-15T03:21:43.593Z,0.40
2018-03-15T03:24:11.100Z,0.30
2018-03-15T03:26:38.639Z,0.40
2018-03-15T03:29:06.149Z,0.40
2018-03-15T03:31:34.461Z,0.40
2018-03-15T03:34:02.086Z,0.30
2018-03-15T03:36:30.812Z,0.40
2018-03-15T03:38:58.543Z,0.30
2018-03-15T03:41:26.834Z,0.40
2018-03-15T03:43:55.104Z,0.40
2018-03-15T03:46:23.464Z,0.40
2018-03-15T03:48:50.943Z,0.30
2018-03-15T03:51:19.239Z,0.40
2018-03-15T03:53:46.774Z,0.30
2018-03-15T03:56:14.315Z,0.40
2018-03-15T03:58:41.819Z,0.50
2018-03-15T04:01:09.378Z,0.50
2018-03-15T04:03:36.882Z,0.50
2018-03-15T04:06:04.655Z,0.50
2018-03-15T04:08:32.393Z,0.40
2018-03-15T04:10:59.892Z,0.40
2018-03-15T04:13:27.398Z,0.40
2018-03-15T04:15:54.926Z,0.40
2018-03-15T04:18:23.250Z,0.40
2018-03-15T04:20:50.750Z,0.30
2018-03-15T04:23:18.309Z,0.30
2018-03-15T04:25:46.587Z,0.30
2018-03-15T04:28:14.129Z,0.30
2018-03-15T04:30:41.770Z,0.30
2018-03-15T04:33:09.338Z,0.30
2018-03-15T04:35:36.886Z,0.30
2018-03-15T04:38:05.166Z,0.20
2018-03-15T04:40:32.722Z,0.20
2018-03-15T04:43:00.277Z,0.20
2018-03-15T04:45:27.831Z,0.20
2018-03-15T04:47:55.403Z,0.20
2018-03-15T04:50:22.947Z,0.20
2018-03-15T04:52:50.466Z,0.30
2018-03-15T04:55:17.972Z,0.30
2018-03-15T04:57:45.493Z,0.30
2018-03-15T05:00:13.830Z,0.30
2018-03-15T05:02:41.402Z,0.30
2018-03-15T05:05:08.911Z,0.40
2018-03-15T05:07:36.443Z,0.40
2018-03-15T05:10:03.975Z,0.40
2018-03-15T05:12:31.538Z,0.40
2018-03-15T05:14:59.086Z,0.40
2018-03-15T05:17:26.727Z,0.50
2018-03-15T05:19:54.231Z,0.50
2018-03-15T05:22:21.730Z,0.40
2018-03-15T05:24:50.154Z,0.40
2018-03-15T05:27:17.657Z,0.30
2018-03-15T05:29:45.182Z,0.40
2018-03-15T05:32:12.720Z,0.40
2018-03-15T05:34:40.238Z,0.40
2018-03-15T05:37:07.783Z,0.40
2018-03-15T05:39:35.498Z,0.50
2018-03-15T05:42:03.008Z,0.50
2018-03-15T05:44:30.528Z,0.50
2018-03-15T05:46:58.039Z,0.60
2018-03-15T05:49:26.338Z,0.70
2018-03-15T05:51:54.613Z,0.70
2018-03-15T05:54:22.906Z,0.80
2018-03-15T05:56:50.429Z,0.70
2018-03-15T05:59:17.947Z,0.80
2018-03-15T06:01:46.451Z,0.90
2018-03-15T06:04:13.970Z,0.80
2018-03-15T06:06:41.540Z,0.90
2018-03-15T06:09:09.162Z,1.00
2018-03-15T06:11:38.190Z,1.00
2018-03-15T06:14:05.702Z,0.90
2018-03-15T06:16:33.214Z,1.10
2018-03-15T06:19:00.731Z,1.10
2018-03-15T06:21:28.226Z,1.10
2018-03-15T06:23:55.807Z,1.10
2018-03-15T06:26:23.310Z,1.10
2018-03-15T06:28:50.850Z,1.20
2018-03-15T06:31:18.351Z,1.20
2018-03-15T06:33:46.643Z,1.30
2018-03-15T06:36:14.932Z,1.30
2018-03-15T06:38:42.455Z,1.30
2018-03-15T06:41:10.751Z,1.40
2018-03-15T06:43:39.020Z,1.50
2018-03-15T06:46:07.310Z,1.50
2018-03-15T06:48:35.583Z,1.60
2018-03-15T06:51:03.874Z,1.60
2018-03-15T06:53:31.488Z,1.50
2018-03-15T06:55:59.014Z,1.70
2018-03-15T06:58:26.540Z,1.70
2018-03-15T07:00:54.826Z,1.80
2018-03-15T07:03:22.339Z,1.70
2018-03-15T07:05:49.866Z,1.80
2018-03-15T07:08:17.371Z,1.90
2018-03-15T07:10:44.906Z,1.90
2018-03-15T07:13:12.410Z,1.90
2018-03-15T07:15:39.935Z,2.00
2018-03-15T07:18:07.449Z,2.10
2018-03-15T07:20:34.979Z,2.20
2018-03-15T07:23:02.500Z,2.20
2018-03-15T07:25:30.018Z,2.30
2018-03-15T07:27:57.574Z,2.40
2018-03-15T07:30:25.139Z,2.40
2018-03-15T07:32:52.659Z,2.50
2018-03-15T07:35:20.963Z,2.50
2018-03-15T07:37:48.487Z,2.50
2018-03-15T07:40:16.794Z,2.60
2018-03-15T07:42:44.312Z,2.50
2018-03-15T07:45:11.874Z,2.60
2018-03-15T07:47:39.388Z,2.60
2018-03-15T07:50:06.960Z,2.60
2018-03-15T07:52:34.500Z,2.60
2018-03-15T07:55:02.023Z,2.70
2018-03-15T07:57:30.328Z,2.70
2018-03-15T07:59:57.847Z,2.70
2018-03-15T08:02:26.174Z,2.80
2018-03-15T08:04:53.690Z,2.70
2018-03-15T08:07:22.002Z,2.80
2018-03-15T08:09:56.669Z,2.80
2018-03-15T08:12:25.049Z,2.90
2018-03-15T08:14:52.577Z,2.90
2018-03-15T08:17:20.103Z,3.00
2018-03-15T08:19:48.391Z,3.10
2018-03-15T08:22:16.703Z,3.20
2018-03-15T08:24:44.224Z,3.20
2018-03-15T08:27:12.520Z,3.40
2018-03-15T08:29:40.030Z,3.30
2018-03-15T08:32:07.572Z,3.50
2018-03-15T08:34:35.861Z,3.70
2018-03-15T08:37:03.386Z,3.60
2018-03-15T08:39:30.898Z,3.70
2018-03-15T08:41:58.433Z,3.80
2018-03-15T08:44:25.951Z,3.90
2018-03-15T08:46:53.486Z,4.00
2018-03-15T08:49:21.778Z,4.10
2018-03-15T08:51:50.073Z,4.20
2018-03-15T08:54:17.596Z,4.10
2018-03-15T08:56:45.138Z,4.20
2018-03-15T08:59:12.650Z,4.30
2018-03-15T09:01:40.930Z,4.40
2018-03-15T09:04:09.204Z,4.50
2018-03-15T09:06:36.734Z,4.40
2018-03-15T09:09:04.249Z,4.60
2018-03-15T09:11:31.772Z,4.70
2018-03-15T09:14:00.038Z,4.90
2018-03-15T09:16:28.325Z,4.90
2018-03-15T09:18:56.633Z,5.00
2018-03-15T09:21:24.143Z,4.90
2018-03-15T09:23:51.666Z,5.10
2018-03-15T09:26:19.164Z,5.20
2018-03-15T09:28:46.695Z,5.30
2018-03-15T09:31:14.202Z,5.50
2018-03-15T09:33:41.741Z,5.60
2018-03-15T09:36:09.255Z,5.70
2018-03-15T09:38:36.799Z,5.80
2018-03-15T09:41:04.314Z,5.80
2018-03-15T09:43:31.855Z,5.80
2018-03-15T09:45:59.372Z,5.90
2018-03-15T09:48:26.912Z,5.90
2018-03-15T09:50:55.208Z,5.90
2018-03-15T09:53:23.490Z,6.00
2018-03-15T09:55:51.011Z,5.90
2018-03-15T09:58:18.550Z,6.00
2018-03-15T10:00:46.069Z,6.00
2018-03-15T10:03:13.607Z,6.00
2018-03-15T10:05:41.936Z,6.00
2018-03-15T10:08:09.438Z,6.00
2018-03-15T10:10:37.739Z,6.20
2018-03-15T10:13:05.270Z,6.10
2018-03-15T10:15:32.792Z,6.30
2018-03-15T10:18:00.319Z,6.40
2018-03-15T10:20:28.598Z,6.60
2018-03-15T10:22:56.149Z,6.60
2018-03-15T10:25:26.394Z,6.70
2018-03-15T10:27:51.968Z,6.60
2018-03-15T10:30:19.503Z,6.60
2018-03-15T10:33:01.914Z,6.60
2018-03-15T10:35:29.458Z,6.60
2018-03-15T10:37:56.987Z,6.60
2018-03-15T10:40:24.538Z,6.60
2018-03-15T10:42:52.083Z,6.60
2018-03-15T10:45:19.615Z,6.70
2018-03-15T10:47:47.143Z,6.70
2018-03-15T10:50:14.690Z,6.80
2018-03-15T10:52:42.219Z,6.80
2018-03-15T10:55:09.755Z,6.90
2018-03-15T10:57:37.283Z,7.00
2018-03-15T11:00:04.838Z,7.10
2018-03-15T11:02:37.927Z,7.20
2018-03-15T11:05:05.482Z,7.30
2018-03-15T11:07:38.724Z,7.40
2018-03-15T11:10:15.763Z,7.60
2018-03-15T11:12:43.281Z,7.50
2018-03-15T11:15:10.826Z,7.60
2018-03-15T11:17:38.355Z,7.70
2018-03-15T11:20:05.913Z,7.70
2018-03-15T11:22:33.425Z,7.80
2018-03-15T11:25:00.963Z,7.80
2018-03-15T11:27:29.210Z,7.90
2018-03-15T11:29:56.738Z,8.10
2018-03-15T11:32:25.026Z,8.30
2018-03-15T11:34:52.562Z,8.30
2018-03-15T11:37:20.082Z,8.40
2018-03-15T11:39:47.633Z,8.40
2018-03-15T11:42:15.151Z,8.50
2018-03-15T11:44:43.436Z,8.60
2018-03-15T11:47:11.742Z,8.80
2018-03-15T11:49:39.275Z,8.70
2018-03-15T11:52:07.584Z,8.90
2018-03-15T11:54:35.108Z,8.80
2018-03-15T11:57:03.415Z,8.80
2018-03-15T11:59:30.932Z,8.70
2018-03-15T12:01:58.471Z,8.70
2018-03-15T12:04:26.007Z,8.80
2018-03-15T12:06:55.367Z,8.80
2018-03-15T12:09:23.675Z,8.80
2018-03-15T12:11:51.239Z,8.80
2018-03-15T12:14:18.783Z,8.90
2018-03-15T12:16:47.091Z,8.90
2018-03-15T12:19:14.595Z,8.80
2018-03-15T12:21:42.122Z,8.90
2018-03-15T12:24:09.643Z,8.90
2018-03-15T12:26:37.950Z,9.10
2018-03-15T12:29:05.490Z,9.00
2018-03-15T12:31:33.025Z,9.10
2018-03-15T12:34:00.587Z,9.10
2018-03-15T12:36:28.125Z,9.00
2018-03-15T12:38:55.627Z,9.10
2018-03-15T12:41:24.187Z,9.20
2018-03-15T12:43:51.711Z,9.10
2018-03-15T12:46:19.234Z,9.20
2018-03-15T12:48:46.743Z,9.20
2018-03-15T12:51:14.299Z,9.20
2018-03-15T12:53:41.843Z,9.30
2018-03-15T12:56:09.352Z,9.30
2018-03-15T12:58:36.935Z,9.30
2018-03-15T13:01:04.463Z,9.30
2018-03-15T13:03:32.102Z,9.30
2018-03-15T13:05:59.643Z,9.30
2018-03-15T13:08:27.183Z,9.20
2018-03-15T13:10:56.351Z,9.30
2018-03-15T13:13:24.654Z,9.20
2018-03-15T13:15:52.939Z,9.40
2018-03-15T13:18:20.495Z,9.30
2018-03-15T13:20:48.043Z,9.40
2018-03-15T13:23:16.362Z,9.30
2018-03-15T13:25:43.904Z,9.20
2018-03-15T13:28:11.680Z,9.20
2018-03-15T13:30:39.223Z,9.20
2018-03-15T13:33:07.507Z,9.10
2018-03-15T13:35:35.055Z,9.10
2018-03-15T13:38:03.352Z,9.00
2018-03-15T13:40:30.876Z,9.00
2018-03-15T13:42:59.175Z,9.00
2018-03-15T13:45:27.447Z,8.90
2018-03-15T13:47:55.004Z,8.80
2018-03-15T13:50:23.277Z,8.90
2018-03-15T13:52:51.566Z,9.00
2018-03-15T13:55:19.839Z,9.00
2018-03-15T13:57:48.150Z,9.00
2018-03-15T14:00:15.666Z,8.90
2018-03-15T14:02:43.191Z,9.00
2018-03-15T14:05:10.831Z,9.00
2018-03-15T14:07:38.365Z,9.00
2018-03-15T14:10:05.911Z,8.90
2018-03-15T14:12:34.213Z,8.90
2018-03-15T14:15:01.764Z,8.80
2018-03-15T14:17:30.065Z,8.90
2018-03-15T14:19:57.654Z,8.80
2018-03-15T14:22:25.198Z,8.80
2018-03-15T14:24:52.772Z,8.80
2018-03-15T14:27:20.321Z,8.80
2018-03-15T14:29:47.883Z,8.80
2018-03-15T14:32:15.465Z,8.80
2018-03-15T14:34:42.967Z,8.80
2018-03-15T14:37:10.499Z,8.80
2018-03-15T14:39:38.030Z,8.80
2018-03-15T14:42:05.547Z,8.80
2018-03-15T14:44:33.079Z,8.90
2018-03-15T14:47:01.374Z,8.90
2018-03-15T14:49:29.672Z,8.90
2018-03-15T14:51:57.979Z,8.80
2018-03-15T14:54:25.516Z,8.80
2018-03-15T14:56:53.034Z,8.80
2018-03-15T14:59:20.559Z,8.90
2018-03-15T15:01:48.090Z,8.90
2018-03-15T15:04:15.622Z,8.90
2018-03-15T15:06:43.147Z,8.80
2018-03-15T15:09:10.658Z,8.80
2018-03-15T15:11:38.963Z,8.80
2018-03-15T15:14:06.489Z,8.80
2018-03-15T15:16:34.859Z,8.80
2018-03-15T15:19:02.383Z,8.70
2018-03-15T15:21:30.522Z,8.80
2018-03-15T15:23:58.048Z,8.80
2018-03-15T15:26:25.587Z,8.80
2018-03-15T15:28:53.143Z,8.80
2018-03-15T15:31:20.697Z,8.80
2018-03-15T15:33:48.202Z,8.80
2018-03-15T15:36:16.490Z,8.70
2018-03-15T15:38:44.776Z,8.70
2018-03-15T15:41:12.298Z,8.60
2018-03-15T15:43:39.798Z,8.60
2018-03-15T15:46:07.318Z,8.60
2018-03-15T15:48:34.838Z,8.60
2018-03-15T15:51:02.362Z,8.60
2018-03-15T15:53:29.884Z,8.60
2018-03-15T15:55:57.445Z,8.60
2018-03-15T15:58:24.953Z,8.60
2018-03-15T16:00:53.262Z,8.60
2018-03-15T16:03:20.823Z,8.50
2018-03-15T16:05:48.379Z,8.60
2018-03-15T16:08:15.924Z,8.60
2018-03-15T16:10:43.470Z,8.60
2018-03-15T16:13:11.781Z,8.70
2018-03-15T16:15:39.385Z,8.60
2018-03-15T16:18:06.904Z,8.70
2018-03-15T16:20:34.468Z,8.80
2018-03-15T16:23:02.003Z,8.80
2018-03-15T16:25:29.509Z,8.80
2018-03-15T16:27:57.088Z,8.90
2018-03-15T16:30:24.671Z,8.90
2018-03-15T16:32:52.223Z,8.90
2018-03-15T16:35:19.779Z,8.90
2018-03-15T16:37:48.111Z,9.00
2018-03-15T16:40:15.666Z,8.90
2018-03-15T16:42:43.250Z,9.00
2018-03-15T16:45:10.806Z,8.90
2018-03-15T16:47:38.367Z,8.90
2018-03-15T16:50:05.948Z,9.00
2018-03-15T16:52:35.072Z,9.00
2018-03-15T16:55:02.659Z,9.10
2018-03-15T16:57:30.202Z,9.20
2018-03-15T16:59:57.800Z,9.20
2018-03-15T17:02:28.504Z,9.10
2018-03-15T17:04:56.127Z,9.10
2018-03-15T17:07:23.704Z,9.10
2018-03-15T17:09:51.259Z,9.00
2018-03-15T17:12:19.621Z,8.90
2018-03-15T17:14:47.988Z,8.90
2018-03-15T17:17:15.573Z,8.80
2018-03-15T17:19:43.888Z,8.80
2018-03-15T17:22:11.440Z,8.70
2018-03-15T17:24:39.785Z,8.70
2018-03-15T17:27:07.369Z,8.60
2018-03-15T17:29:34.939Z,8.60
2018-03-15T17:32:03.260Z,8.60
2018-03-15T17:34:30.840Z,8.50
2018-03-15T17:36:58.439Z,8.50
2018-03-15T17:39:26.078Z,8.40
2018-03-15T17:41:53.657Z,8.40
2018-03-15T17:44:21.267Z,8.40
2018-03-15T17:46:48.842Z,8.40
2018-03-15T17:49:17.198Z,8.30
2018-03-15T17:51:44.760Z,8.30
2018-03-15T17:54:12.346Z,8.30
2018-03-15T17:56:40.648Z,8.20
2018-03-15T17:59:09.335Z,8.10
2018-03-15T18:01:36.883Z,8.10
2018-03-15T18:04:05.321Z,8.00
2018-03-15T18:06:32.905Z,8.00
2018-03-15T18:09:00.500Z,8.00
2018-03-15T18:11:28.063Z,8.00
2018-03-15T18:13:55.672Z,8.00
2018-03-15T18:16:24.142Z,7.90
2018-03-15T18:18:51.674Z,7.90
2018-03-15T18:21:19.947Z,7.90
2018-03-15T18:23:48.237Z,7.90
2018-03-15T18:26:17.370Z,7.80
2018-03-15T18:28:44.895Z,7.80
2018-03-15T18:31:12.435Z,7.80
2018-03-15T18:33:40.983Z,7.80
2018-03-15T18:36:09.082Z,7.80
2018-03-15T18:38:38.122Z,7.70
2018-03-15T18:41:05.650Z,7.70
2018-03-15T18:43:33.954Z,7.70
2018-03-15T18:46:01.490Z,7.60
2018-03-15T18:48:29.766Z,7.60
2018-03-15T18:51:00.043Z,7.60
2018-03-15T18:53:27.546Z,7.50
2018-03-15T18:55:55.886Z,7.50
2018-03-15T18:58:23.383Z,7.50
2018-03-15T19:00:51.674Z,7.50
2018-03-15T19:03:19.942Z,7.40
2018-03-15T19:05:48.231Z,7.40
2018-03-15T19:08:16.500Z,7.30
2018-03-15T19:10:44.790Z,7.30
2018-03-15T19:13:13.077Z,7.30
2018-03-15T19:15:40.608Z,7.20
2018-03-15T19:18:08.898Z,7.20
2018-03-15T19:20:37.191Z,7.20
2018-03-15T19:23:04.702Z,7.10
2018-03-15T19:25:32.240Z,7.20
2018-03-15T19:27:59.746Z,7.20
2018-03-15T19:30:28.047Z,7.20
2018-03-15T19:32:55.554Z,7.10
2018-03-15T19:35:23.083Z,7.10
2018-03-15T19:37:50.630Z,7.10
2018-03-15T19:40:18.888Z,7.10
2018-03-15T19:42:46.406Z,7.10
2018-03-15T19:45:13.921Z,7.10
2018-03-15T19:47:41.427Z,7.10
2018-03-15T19:50:08.946Z,7.10
2018-03-15T19:52:36.457Z,7.00
2018-03-15T19:55:03.979Z,7.00
2018-03-15T19:57:31.500Z,7.00
2018-03-15T20:00:00.780Z,7.00
2018-03-15T20:02:29.111Z,6.90
2018-03-15T20:04:56.622Z,6.90
2018-03-15T20:07:24.157Z,6.90
2018-03-15T20:09:51.667Z,6.90
2018-03-15T20:12:19.973Z,7.00
2018-03-15T20:14:47.484Z,6.90
2018-03-15T20:17:15.019Z,7.00
2018-03-15T20:19:42.531Z,7.00
2018-03-15T20:22:10.979Z,7.10
2018-03-15T20:24:38.551Z,7.00
2018-03-15T20:27:06.082Z,7.10
2018-03-15T20:29:33.583Z,7.10
2018-03-15T20:32:01.867Z,7.00
2018-03-15T20:34:29.404Z,7.00
2018-03-15T20:36:56.923Z,7.00
2018-03-15T20:39:30.053Z,7.00
2018-03-15T20:41:57.652Z,7.00
2018-03-15T20:44:25.155Z,7.10
2018-03-15T20:46:58.325Z,7.10
2018-03-15T20:49:26.566Z,7.10
2018-03-15T20:51:54.850Z,7.10
2018-03-15T20:54:22.374Z,7.10
2018-03-15T20:56:49.891Z,7.20
2018-03-15T20:59:17.385Z,7.20
2018-03-15T21:01:44.902Z,7.20
2018-03-15T21:04:12.590Z,7.20
2018-03-15T21:06:40.118Z,7.20
2018-03-15T21:09:08.382Z,7.10
2018-03-15T21:11:36.666Z,7.10
2018-03-15T21:14:04.938Z,7.10
2018-03-15T21:16:33.239Z,7.10
2018-03-15T21:19:00.790Z,7.00
2018-03-15T21:21:29.083Z,7.00
2018-03-15T21:23:56.589Z,7.00
2018-03-15T21:26:24.110Z,7.00
2018-03-15T21:28:51.689Z,7.00
2018-03-15T21:31:19.224Z,7.00
2018-03-15T21:33:46.721Z,7.00
2018-03-15T21:36:14.268Z,7.00
2018-03-15T21:38:41.758Z,7.00
2018-03-15T21:41:09.266Z,7.00
2018-03-15T21:43:36.789Z,7.00
2018-03-15T21:46:04.312Z,7.00
2018-03-15T21:48:31.836Z,7.00
2018-03-15T21:50:59.335Z,7.00
2018-03-15T21:53:26.859Z,7.00
2018-03-15T21:55:54.370Z,7.00
2018-03-15T21:58:22.674Z,6.90
2018-03-15T22:00:50.950Z,6.90
2018-03-15T22:03:19.577Z,6.90
2018-03-15T22:05:47.112Z,6.90
2018-03-15T22:08:14.797Z,6.90
2018-03-15T22:10:42.353Z,6.90
2018-03-15T22:13:09.925Z,6.90
2018-03-15T22:15:37.477Z,6.90
2018-03-15T22:18:05.029Z,6.90
2018-03-15T22:20:32.569Z,6.90
2018-03-15T22:23:00.896Z,6.90
2018-03-15T22:25:28.440Z,6.80
2018-03-15T22:27:56.768Z,6.80
2018-03-15T22:30:25.106Z,6.80
2018-03-15T22:32:52.646Z,6.80
2018-03-15T22:35:20.240Z,6.80
2018-03-15T22:37:48.697Z,6.80
2018-03-15T22:40:16.260Z,6.80
2018-03-15T22:42:43.888Z,6.80
2018-03-15T22:45:12.250Z,6.70
2018-03-15T22:47:39.792Z,6.70
2018-03-15T22:50:07.396Z,6.70
2018-03-15T22:52:34.941Z,6.70
2018-03-15T22:55:03.345Z,6.60
2018-03-15T22:57:31.676Z,6.60
2018-03-15T22:59:59.224Z,6.60
2018-03-15T23:02:26.795Z,6.60
2018-03-15T23:04:54.389Z,6.60
2018-03-15T23:07:21.976Z,6.50
2018-03-15T23:09:49.543Z,6.50
2018-03-15T23:12:17.084Z,6.50
2018-03-15T23:14:44.690Z,6.50
2018-03-15T23:17:12.250Z,6.40
2018-03-15T23:19:39.810Z,6.40
2018-03-15T23:22:07.351Z,6.40
2018-03-15T23:24:34.920Z,6.40
2018-03-15T23:27:02.467Z,6.40
2018-03-15T23:29:30.056Z,6.40
2018-03-15T23:31:57.600Z,6.40
2018-03-15T23:34:25.168Z,6.30
2018-03-15T23:36:52.703Z,6.30
2018-03-15T23:39:20.249Z,6.30
2018-03-15T23:41:47.801Z,6.30
2018-03-15T23:44:16.113Z,6.30
2018-03-15T23:46:43.675Z,6.20
2018-03-15T23:49:11.216Z,6.30
2018-03-15T23:51:38.778Z,6.30
2018-03-15T23:54:06.320Z,6.30
2018-03-15T23:56:33.870Z,6.30
2018-03-15T23:59:02.192Z,6.30
